Latest Weather Observations for Marble Bar

IDW60801

Issued at 10:05 am WST Monday 15 September 2014 (issued every 30 minutes, with the page automatically refreshed every 10 minutes)

About weather observations | Map of weather stations | Latest weather observations for WA | Other Formats
Station Details ID: 004106 Name: MARBLE BAR Lat: -21.18 Lon: 119.75 Height: 182.3 m
Data from the previous 72 hours. | See also: Recent months at Marble Bar
Date/Time
WST
Temp
°C
App
Temp
°C
Dew
Point
Rel
Hum
%
Delta-T
°C
Wind Press
QNH
hPa
Press
MSL
hPa
Rain
since 9 am
mm
Dir
 
Spd
km/h
Gust
km/h
Spd
kts
Gust
kts
15/10:00am 34.6 31.5 1.1 12 16.9 E 7 17 4 9 1014.3 1013.4 0.0
15/09:30am 33.3 29.5 -1.1 11 16.6 ESE 9 19 5 10 1014.4 1013.5 0.0
15/09:00am 32.0 27.8 -0.9 12 15.8 ESE 11 15 6 8 1014.5 1013.6 0.0
15/08:30am 30.9 26.7 -0.7 13 15.1 SE 11 15 6 8 1014.5 1013.6 0.0
15/08:00am 28.6 25.9 0.3 16 13.6 E 4 9 2 5 1014.4 1013.5 0.0
15/07:30am 24.6 22.5 -0.5 19 11.5 CALM 0 2 0 1 1014.2 1013.2 0.0
15/07:00am 20.8 19.0 1.1 27 9.0 CALM 0 4 0 2 1013.9 1012.9 0.0
15/06:30am 18.2 16.3 0.8 31 7.8 CALM 0 0 0 0 1013.7 1012.7 0.0
15/06:00am 17.0 15.1 0.6 33 7.2 S 0 0 0 0 1013.4 1012.4 0.0
15/05:30am 18.8 16.4 -0.6 27 8.5 S 2 4 1 2 1013.1 1012.1 0.0
15/05:00am 19.3 17.3 -0.1 27 8.6 CALM 0 2 0 1 1012.9 1011.9 0.0
15/04:30am 20.4 17.6 -0.3 25 9.2 ESE 4 6 2 3 1012.6 1011.6 0.0
15/04:00am 19.4 16.6 -0.1 27 8.6 SE 4 6 2 3 1012.3 1011.3 0.0
15/03:30am 19.8 17.1 0.3 27 8.7 S 4 7 2 4 1012.1 1011.1 0.0
15/03:00am 19.6 16.9 0.1 27 8.7 S 4 6 2 3 1012.1 1011.1 0.0
15/02:30am 20.4 17.6 -0.3 25 9.2 S 4 6 2 3 1012.1 1011.1 0.0
15/02:00am 20.6 18.1 -0.7 24 9.4 SSE 2 6 1 3 1012.2 1011.2 0.0
15/01:30am 21.4 18.6 -0.6 23 9.8 SSE 4 6 2 3 1012.3 1011.3 0.0
15/01:00am 21.5 18.7 -0.5 23 9.8 SE 4 6 2 3 1012.5 1011.5 0.0
15/12:30am 22.3 19.2 0.2 23 10.1 SE 6 7 3 4 1012.8 1011.8 0.0
15/12:00am 21.6 18.5 0.2 24 9.7 S 6 7 3 4 1013.0 1012.0 0.0
 
Date/Time
WST
Temp
°C
App
Temp
°C
Dew
Point
Rel
Hum
%
Delta-T
°C
Wind Press
QNH
hPa
Press
MSL
hPa
Rain
since 9 am
mm
Dir
 
Spd
km/h
Gust
km/h
Spd
kts
Gust
kts
14/11:30pm 22.4 20.0 -0.3 22 10.3 SE 2 4 1 2 1013.3 1012.3 0.0
14/11:00pm 22.1 19.7 -0.6 22 10.2 SE 2 4 1 2 1013.4 1012.4 0.0
14/10:30pm 24.3 21.8 -0.8 19 11.4 SE 2 6 1 3 1013.6 1012.6 0.0
14/10:00pm 25.9 22.9 -1.8 16 12.5 NNE 4 11 2 6 1013.6 1012.6 0.0
14/09:30pm 26.2 21.9 -1.6 16 12.6 N 11 19 6 10 1013.7 1012.7 0.0
14/09:00pm 24.5 22.1 -0.6 19 11.5 SSE 2 4 1 2 1013.5 1012.5 0.0
14/08:30pm 25.7 23.3 -0.4 18 12.1 SE 2 4 1 2 1013.5 1012.5 0.0
14/08:00pm 27.2 24.2 -1.7 15 13.2 SE 4 6 2 3 1013.4 1012.4 0.0
14/07:30pm 28.1 24.7 -1.9 14 13.8 SE 6 7 3 4 1013.2 1012.2 0.0
14/07:00pm 28.8 25.4 -2.3 13 14.3 SE 6 9 3 5 1012.9 1011.9 0.0
14/06:30pm 30.4 27.4 -2.2 12 15.2 ESE 4 7 2 4 1012.6 1011.6 0.0
14/06:00pm 32.6 29.1 -2.9 10 16.6 SE 6 7 3 4 1012.3 1011.3 0.0
14/05:30pm 35.5 32.5 -5.5 7 18.7 E 2 4 1 2 1012.1 1011.1 0.0
14/05:00pm 36.3 32.6 -5.0 7 19.2 ESE 6 17 3 9 1011.8 1010.9 0.0
14/04:30pm 36.9 32.6 -4.5 7 19.4 NNE 9 20 5 11 1011.6 1010.7 0.0
14/04:00pm 37.9 34.1 -3.8 7 19.9 NNW 7 17 4 9 1011.5 1010.6 0.0
14/03:30pm 37.7 33.3 -6.0 6 20.1 SSW 9 13 5 7 1011.6 1010.7 0.0
14/03:00pm 38.3 33.9 -5.5 6 20.4 N 9 15 5 8 1011.6 1010.7 0.0
14/02:30pm 37.5 33.6 -6.1 6 20.0 SSW 6 9 3 5 1011.8 1010.9 0.0
14/02:00pm 37.2 30.9 -6.3 6 19.9 NE 19 24 10 13 1012.1 1011.1 0.0
14/01:30pm 37.5 32.7 -6.1 6 20.0 ESE 11 30 6 16 1012.4 1011.4 0.0
14/01:00pm 36.9 32.4 -6.5 6 19.7 ENE 9 17 5 9 1012.9 1011.9 0.0
14/12:30pm 36.8 31.6 -6.6 6 19.7 E 13 22 7 12 1013.5 1012.5 0.0
14/12:00pm 36.2 31.7 -7.0 6 19.4 ENE 9 17 5 9 1014.2 1013.2 0.0
14/11:30am 35.5 30.4 -5.5 7 18.7 ENE 13 19 7 10 1014.7 1013.8 0.0
14/11:00am 35.1 31.1 -5.8 7 18.5 NE 7 17 4 9 1015.2 1014.3 0.0
14/10:30am 34.5 30.1 -6.3 7 18.3 ENE 9 17 5 9 1015.8 1014.9 0.0
14/10:00am 33.4 30.0 -5.3 8 17.4 E 4 7 2 4 1016.0 1015.1 0.0
14/09:30am 32.5 28.2 -4.4 9 16.8 E 9 15 5 8 1016.1 1015.2 0.0
14/09:00am 31.3 27.5 -3.9 10 16.0 E 7 9 4 5 1016.1 1015.2 0.0
14/08:30am 30.2 26.8 -2.3 12 15.1 ESE 6 11 3 6 1016.2 1015.3 0.0
14/08:00am 27.4 22.6 -2.4 14 13.5 S 13 17 7 9 1015.6 1014.7 0.0
14/07:30am 24.5 19.9 -1.3 18 11.6 S 13 17 7 9 1015.2 1014.3 0.0
14/07:00am 21.2 19.3 3.0 30 8.7 S 2 7 1 4 1014.9 1014.0 0.0
14/06:30am 18.6 15.9 0.2 29 8.1 S 4 6 2 3 1014.4 1013.5 0.0
14/06:00am 17.9 15.1 -0.4 29 7.9 S 4 7 2 4 1014.2 1013.2 0.0
14/05:30am 17.1 14.0 0.3 32 7.3 S 6 7 3 4 1013.9 1012.9 0.0
14/05:00am 17.8 15.5 0.5 31 7.6 SE 2 4 1 2 1014.0 1013.0 0.0
14/04:30am 18.5 15.2 0.2 29 8.1 S 7 9 4 5 1013.8 1012.8 0.0
14/04:00am 18.3 16.0 0.4 30 7.9 S 2 4 1 2 1013.6 1012.6 0.0
14/03:30am 19.1 16.3 -0.3 27 8.5 SE 4 7 2 4 1013.7 1012.7 0.0
14/03:00am 19.4 16.6 -0.1 27 8.6 SE 4 7 2 4 1013.8 1012.8 0.0
14/02:30am 18.2 16.2 -0.1 29 8.0 CALM 0 0 0 0 1013.7 1012.7 0.0
14/02:00am 20.3 17.6 0.2 26 9.0 SSE 4 6 2 3 1013.9 1012.9 0.0
14/01:30am 20.3 18.3 -0.3 25 9.2 CALM 0 0 0 0 1013.9 1012.9 0.0
14/01:00am 19.4 16.6 -0.1 27 8.6 SSE 4 6 2 3 1014.1 1013.1 0.0
14/12:30am 19.6 17.2 -0.4 26 8.8 SE 2 6 1 3 1014.2 1013.2 0.0
14/12:00am 20.1 17.3 -0.5 25 9.1 ESE 4 6 2 3 1014.5 1013.6 0.0
 
Date/Time
WST
Temp
°C
App
Temp
°C
Dew
Point
Rel
Hum
%
Delta-T
°C
Wind Press
QNH
hPa
Press
MSL
hPa
Rain
since 9 am
mm
Dir
 
Spd
km/h
Gust
km/h
Spd
kts
Gust
kts
13/11:30pm 20.8 18.0 -0.5 24 9.5 E 4 7 2 4 1014.6 1013.7 0.0
13/11:00pm 23.2 21.0 -1.7 19 11.0 CALM 0 2 0 1 1014.8 1013.9 0.0
13/10:30pm 23.3 21.1 -1.6 19 11.1 CALM 0 4 0 2 1015.1 1014.2 0.0
13/10:00pm 25.0 21.9 -2.5 16 12.2 N 4 7 2 4 1015.1 1014.2 0.0
13/09:30pm 23.6 20.4 -0.6 20 11.0 ESE 6 9 3 5 1015.1 1014.2 0.0
13/09:00pm 24.1 20.9 -0.2 20 11.2 SE 6 9 3 5 1015.2 1014.3 0.0
13/08:30pm 23.8 21.1 0.2 21 10.9 SE 4 6 2 3 1015.1 1014.2 0.0
13/08:00pm 25.3 22.6 0.0 19 11.8 SSE 4 7 2 4 1014.9 1014.0 0.0
13/07:30pm 25.8 23.0 -0.3 18 12.1 E 4 7 2 4 1014.7 1013.8 0.0
13/07:00pm 26.9 24.8 -1.0 16 12.9 CALM 0 0 0 0 1014.4 1013.5 0.0
13/06:30pm 28.5 26.2 -2.6 13 14.1 CALM 0 0 0 0 1014.1 1013.1 0.0
13/06:00pm 32.2 29.6 -4.6 9 16.6 CALM 0 0 0 0 1013.8 1012.8 0.0
13/05:30pm 35.1 32.4 -5.8 7 18.5 CALM 0 0 0 0 1013.6 1012.6 0.0
13/05:00pm 35.1 32.0 -5.8 7 18.5 E 2 6 1 3 1013.5 1012.5 0.0
13/04:30pm 35.7 31.0 -5.4 7 18.8 ESE 11 19 6 10 1013.4 1012.4 0.0
13/04:00pm 35.9 31.9 -5.2 7 18.9 E 7 13 4 7 1013.2 1012.2 0.0
13/03:30pm 36.6 32.9 -4.7 7 19.3 NNE 6 9 3 5 1013.2 1012.2 0.0
13/03:00pm 36.4 32.1 -4.9 7 19.2 ESE 9 17 5 9 1013.4 1012.4 0.0
13/02:30pm 36.8 32.9 -4.6 7 19.4 E 7 13 4 7 1013.6 1012.6 0.0
13/02:00pm 36.0 32.0 -5.2 7 19.0 SW 7 19 4 10 1013.8 1012.8 0.0
13/01:30pm 36.8 32.1 -4.6 7 19.4 W 11 20 6 11 1014.2 1013.2 0.0
13/01:00pm 36.5 32.2 -4.8 7 19.2 WNW 9 17 5 9 1014.5 1013.6 0.0
13/12:30pm 35.4 31.8 -3.8 8 18.4 NNW 6 11 3 6 1015.0 1014.1 0.0
13/12:00pm 36.7 32.8 -4.7 7 19.3 N 7 19 4 10 1015.6 1014.7 0.0
13/11:30am 34.6 30.7 -4.4 8 18.0 SSE 7 11 4 6 1016.2 1015.3 0.0
13/11:00am 35.0 31.2 -4.1 8 18.2 NNE 7 13 4 7 1016.8 1015.9 0.0
13/10:30am 34.1 30.4 -3.2 9 17.5 E 7 20 4 11 1017.3 1016.4 0.0
13/10:00am 33.2 28.8 -2.5 10 16.8 SE 11 17 6 9 1018.0 1017.0 0.0
13/09:30am 31.6 26.8 -0.1 13 15.4 ESE 15 20 8 11 1018.0 1017.0 0.0
13/09:00am 30.9 26.0 -0.7 13 15.1 SSE 15 24 8 13 1018.1 1017.1 0.0
13/08:30am 28.4 24.0 0.2 16 13.5 S 13 17 7 9 1018.1 1017.1 0.0
13/08:00am 26.9 23.0 1.3 19 12.3 S 11 17 6 9 1017.9 1016.9 0.0
13/07:30am 24.1 21.3 2.3 24 10.5 S 6 9 3 5 1017.6 1016.7 0.0
13/07:00am 20.7 18.4 2.5 30 8.6 SSE 4 4 2 2 1017.4 1016.5 0.0
13/06:30am 18.6 16.3 2.9 35 7.3 SSE 4 7 2 4 1017.3 1016.4 0.0
13/06:00am 17.3 15.0 2.5 37 6.8 S 4 7 2 4 1017.0 1016.1 0.0
13/05:30am 16.4 14.8 2.4 39 6.4 CALM 0 4 0 2 1016.8 1015.9 0.0
13/05:00am 17.0 15.0 2.2 37 6.7 SE 2 6 1 3 1016.6 1015.7 0.0
13/04:30am 17.1 15.4 1.9 36 6.9 CALM 0 0 0 0 1016.2 1015.3 0.0
13/04:00am 17.8 15.7 1.7 34 7.3 SSW 2 4 1 2 1016.2 1015.3 0.0
13/03:30am 18.2 16.5 1.7 33 7.5 CALM 0 0 0 0 1015.9 1015.0 0.0
13/03:00am 19.4 16.5 1.4 30 8.2 SSE 6 7 3 4 1015.8 1014.9 0.0
13/02:30am 21.4 18.4 1.1 26 9.4 E 6 7 3 4 1015.7 1014.8 0.0
13/02:00am 22.0 19.5 1.6 26 9.5 SE 4 6 2 3 1015.7 1014.8 0.0
13/01:30am 20.2 18.5 1.6 29 8.6 CALM 0 2 0 1 1015.8 1014.9 0.0
13/01:00am 22.5 19.6 1.5 25 9.8 S 6 7 3 4 1015.9 1015.0 0.0
13/12:30am 22.5 20.0 1.5 25 9.8 SSE 4 6 2 3 1016.1 1015.2 0.0
13/12:00am 23.2 20.3 1.5 24 10.2 S 6 9 3 5 1016.3 1015.4 0.0
 
Date/Time
WST
Temp
°C
App
Temp
°C
Dew
Point
Rel
Hum
%
Delta-T
°C
Wind Press
QNH
hPa
Press
MSL
hPa
Rain
since 9 am
mm
Dir
 
Spd
km/h
Gust
km/h
Spd
kts
Gust
kts
12/11:30pm 24.1 21.0 0.4 21 11.0 SSE 6 9 3 5 1016.5 1015.6 0.0
12/11:00pm 24.9 21.8 0.4 20 11.4 S 6 11 3 6 1016.5 1015.6 0.0
12/10:30pm 25.4 22.7 0.1 19 11.8 SSW 4 7 2 4 1016.7 1015.8 0.0
12/10:00pm 23.7 21.8 0.7 22 10.7 CALM 0 2 0 1 1017.0 1016.1 0.0
12/09:30pm 25.6 22.4 -0.5 18 12.1 SSW 6 9 3 5 1017.1 1016.2 0.0
12/09:00pm 27.9 24.2 -0.2 16 13.3 WSW 9 15 5 8 1017.0 1016.1 0.0
12/08:30pm 26.8 23.5 -1.1 16 12.9 ESE 6 9 3 5 1016.7 1015.8 0.0
12/08:00pm 26.1 22.9 -0.8 17 12.4 SE 6 9 3 5 1016.6 1015.7 0.0
12/07:30pm 26.1 24.1 0.0 18 12.2 CALM 0 2 0 1 1016.3 1015.4 0.0
12/07:00pm 26.7 24.2 -1.2 16 12.8 SE 2 7 1 4 1016.1 1015.2 0.0
12/06:30pm 27.8 25.4 -0.3 16 13.2 ENE 2 4 1 2 1015.6 1014.7 0.0
12/06:00pm 30.5 28.2 -2.1 12 15.2 CALM 0 0 0 0 1015.3 1014.4 0.0
12/05:30pm 33.8 31.4 -3.5 9 17.4 CALM 0 0 0 0 1015.0 1014.1 0.0
12/05:00pm 34.9 32.0 -4.2 8 18.2 NNW 2 4 1 2 1014.9 1014.0 0.0
12/04:30pm 35.2 32.3 -4.0 8 18.3 S 2 7 1 4 1014.8 1013.9 0.0
12/04:00pm 35.2 30.6 -4.0 8 18.3 E 11 15 6 8 1014.7 1013.8 0.0
12/03:30pm 35.5 32.1 -5.5 7 18.7 WSW 4 7 2 4 1014.6 1013.7 0.0
12/03:00pm 35.8 32.0 -3.5 8 18.6 S 7 13 4 7 1014.8 1013.9 0.0
12/02:30pm 36.1 32.0 -3.3 8 18.7 ESE 9 22 5 12 1015.0 1014.1 0.0
12/02:00pm 35.5 31.9 -3.8 8 18.4 SSE 6 13 3 7 1015.3 1014.4 0.0
12/01:30pm 35.1 30.9 -4.1 8 18.3 NE 9 22 5 12 1015.8 1014.9 0.0
12/01:00pm 35.4 31.6 -3.8 8 18.4 NNE 7 15 4 8 1015.9 1015.0 0.0
12/12:30pm 35.0 30.6 -2.6 9 17.9 SE 11 19 6 10 1016.4 1015.5 0.0
12/12:00pm 35.4 32.3 -2.3 9 18.1 NNW 4 11 2 6 1016.9 1016.0 0.0
12/11:30am 35.0 31.3 -2.6 9 17.9 ENE 7 17 4 9 1017.4 1016.5 0.0
12/11:00am 33.6 29.1 -3.6 9 17.3 ESE 11 19 6 10 1018.2 1017.2 0.0
12/10:30am 32.9 28.1 -2.7 10 16.7 E 13 22 7 12 1018.6 1017.6 0.0

Other Formats:

Comma delimited format used in spreadsheet applications
http://www.bom.gov.au/fwo/IDW60801/IDW60801.95317.axf

JavaScript Object Notation format (JSON) in row-major order
http://www.bom.gov.au/fwo/IDW60801/IDW60801.95317.json